sensor_id;sensor_type;location;lat;lon;timestamp;pressure;altitude;pressure_sealevel;temperature;humidity
33286;BME280;19656;50.096;20.014;2023-04-01T00:03:00;97266.73;;;12.48;53.58
33286;BME280;19656;50.096;20.014;2023-04-01T00:08:04;97264.44;;;12.47;53.71
33286;BME280;19656;50.096;20.014;2023-04-01T00:13:08;97268.89;;;12.42;53.82
33286;BME280;19656;50.096;20.014;2023-04-01T00:18:12;97265.59;;;12.39;53.89
33286;BME280;19656;50.096;20.014;2023-04-01T00:29:11;97251.16;;;12.40;53.96
33286;BME280;19656;50.096;20.014;2023-04-01T00:34:15;97245.92;;;12.37;54.07
33286;BME280;19656;50.096;20.014;2023-04-01T00:39:20;97245.48;;;12.36;54.19
33286;BME280;19656;50.096;20.014;2023-04-01T00:44:32;97244.70;;;12.38;54.24
33286;BME280;19656;50.096;20.014;2023-04-01T00:49:39;97236.80;;;12.34;54.26
33286;BME280;19656;50.096;20.014;2023-04-01T00:54:47;97236.52;;;12.31;54.37
33286;BME280;19656;50.096;20.014;2023-04-01T00:59:54;97232.48;;;12.30;54.43
33286;BME280;19656;50.096;20.014;2023-04-01T01:05:04;97232.88;;;12.26;54.59
33286;BME280;19656;50.096;20.014;2023-04-01T01:10:24;97238.86;;;12.25;54.66
33286;BME280;19656;50.096;20.014;2023-04-01T01:15:41;97247.46;;;12.24;54.88
33286;BME280;19656;50.096;20.014;2023-04-01T01:31:50;97255.08;;;12.18;55.24
33286;BME280;19656;50.096;20.014;2023-04-01T01:37:03;97250.41;;;12.18;55.33
33286;BME280;19656;50.096;20.014;2023-04-01T01:42:13;97252.25;;;12.15;55.45
33286;BME280;19656;50.096;20.014;2023-04-01T01:47:43;97259.81;;;12.11;55.47
33286;BME280;19656;50.096;20.014;2023-04-01T01:52:49;97265.06;;;12.01;55.76
33286;BME280;19656;50.096;20.014;2023-04-01T01:57:59;97269.25;;;12.01;55.95
33286;BME280;19656;50.096;20.014;2023-04-01T02:03:11;97271.09;;;12.03;55.96
33286;BME280;19656;50.096;20.014;2023-04-01T02:08:30;97262.87;;;12.03;56.01
33286;BME280;19656;50.096;20.014;2023-04-01T02:19:54;97260.27;;;11.91;56.50
33286;BME280;19656;50.096;20.014;2023-04-01T02:25:13;97261.39;;;11.91;56.64
33286;BME280;19656;50.096;20.014;2023-04-01T02:30:18;97267.83;;;11.89;56.75
33286;BME280;19656;50.096;20.014;2023-04-01T02:42:48;97277.20;;;11.89;57.04
33286;BME280;19656;50.096;20.014;2023-04-01T02:47:53;97280.07;;;11.85;57.06
33286;BME280;19656;50.096;20.014;2023-04-01T02:53:03;97282.20;;;11.83;57.13
33286;BME280;19656;50.096;20.014;2023-04-01T02:58:07;97284.63;;;11.81;57.25
33286;BME280;19656;50.096;20.014;2023-04-01T03:03:12;97291.67;;;11.75;57.37
33286;BME280;19656;50.096;20.014;2023-04-01T03:08:17;97295.02;;;11.68;57.60
33286;BME280;19656;50.096;20.014;2023-04-01T03:13:21;97294.05;;;11.65;57.79
33286;BME280;19656;50.096;20.014;2023-04-01T03:18:28;97294.37;;;11.63;57.91
33286;BME280;19656;50.096;20.014;2023-04-01T03:23:32;97291.04;;;11.63;57.96
33286;BME280;19656;50.096;20.014;2023-04-01T03:28:36;97288.24;;;11.58;57.97
33286;BME280;19656;50.096;20.014;2023-04-01T03:33:40;97284.33;;;11.56;58.14
33286;BME280;19656;50.096;20.014;2023-04-01T03:38:58;97287.19;;;11.58;58.55
33286;BME280;19656;50.096;20.014;2023-04-01T03:44:23;97288.10;;;11.58;58.15
33286;BME280;19656;50.096;20.014;2023-04-01T03:49:28;97295.49;;;11.60;58.12
33286;BME280;19656;50.096;20.014;2023-04-01T03:54:32;97300.36;;;11.58;58.15
33286;BME280;19656;50.096;20.014;2023-04-01T03:59:36;97299.44;;;11.53;58.32
33286;BME280;19656;50.096;20.014;2023-04-01T04:04:40;97302.27;;;11.51;58.35
33286;BME280;19656;50.096;20.014;2023-04-01T04:09:44;97306.08;;;11.58;58.60
33286;BME280;19656;50.096;20.014;2023-04-01T04:14:48;97308.48;;;11.65;58.33
33286;BME280;19656;50.096;20.014;2023-04-01T04:19:51;97309.15;;;11.65;58.32
33286;BME280;19656;50.096;20.014;2023-04-01T04:24:56;97316.80;;;11.63;58.39
33286;BME280;19656;50.096;20.014;2023-04-01T04:30:07;97319.44;;;11.60;58.46
33286;BME280;19656;50.096;20.014;2023-04-01T04:35:29;97313.73;;;11.61;58.37
33286;BME280;19656;50.096;20.014;2023-04-01T04:40:36;97312.25;;;11.61;58.48
33286;BME280;19656;50.096;20.014;2023-04-01T04:45:41;97317.41;;;11.66;58.47
33286;BME280;19656;50.096;20.014;2023-04-01T04:50:50;97309.27;;;11.69;58.38
33286;BME280;19656;50.096;20.014;2023-04-01T04:55:54;97312.19;;;11.70;58.41
33286;BME280;19656;50.096;20.014;2023-04-01T05:01:11;97312.73;;;11.74;58.40
33286;BME280;19656;50.096;20.014;2023-04-01T05:06:16;97315.61;;;11.75;58.32
33286;BME280;19656;50.096;20.014;2023-04-01T05:11:21;97317.52;;;11.76;58.31
33286;BME280;19656;50.096;20.014;2023-04-01T05:16:26;97316.27;;;11.77;58.40
33286;BME280;19656;50.096;20.014;2023-04-01T05:21:38;97318.84;;;11.78;58.36
33286;BME280;19656;50.096;20.014;2023-04-01T05:26:43;97320.52;;;11.81;58.28
33286;BME280;19656;50.096;20.014;2023-04-01T05:31:47;97318.92;;;11.87;58.31
33286;BME280;19656;50.096;20.014;2023-04-01T05:36:51;97318.55;;;11.90;58.30
33286;BME280;19656;50.096;20.014;2023-04-01T06:53:25;97330.02;;;12.31;59.05
33286;BME280;19656;50.096;20.014;2023-04-01T06:59:25;97334.64;;;12.35;58.80
33286;BME280;19656;50.096;20.014;2023-04-01T07:05:20;97336.86;;;12.38;58.91
33286;BME280;19656;50.096;20.014;2023-04-01T07:17:20;97336.62;;;12.37;58.50
33286;BME280;19656;50.096;20.014;2023-04-01T07:23:26;97332.16;;;12.42;58.29
33286;BME280;19656;50.096;20.014;2023-04-01T07:28:48;97336.84;;;12.43;57.92
33286;BME280;19656;50.096;20.014;2023-04-01T07:48:58;97328.30;;;12.83;57.23
33286;BME280;19656;50.096;20.014;2023-04-01T07:54:20;97320.16;;;12.97;57.16
33286;BME280;19656;50.096;20.014;2023-04-01T07:59:45;97325.86;;;13.06;56.70
33286;BME280;19656;50.096;20.014;2023-04-01T08:11:31;97333.98;;;13.03;56.15
33286;BME280;19656;50.096;20.014;2023-04-01T08:28:43;97343.34;;;13.17;55.51
33286;BME280;19656;50.096;20.014;2023-04-01T08:34:19;97341.25;;;13.24;55.69
33286;BME280;19656;50.096;20.014;2023-04-01T08:39:34;97339.98;;;13.35;55.27
33286;BME280;19656;50.096;20.014;2023-04-01T08:51:05;97340.19;;;13.50;54.76
33286;BME280;19656;50.096;20.014;2023-04-01T08:56:50;97334.40;;;13.68;54.39
33286;BME280;19656;50.096;20.014;2023-04-01T09:02:29;97334.96;;;13.82;53.86
33286;BME280;19656;50.096;20.014;2023-04-01T09:14:02;97327.91;;;14.00;53.29
33286;BME280;19656;50.096;20.014;2023-04-01T09:36:02;97333.33;;;13.67;54.15
33286;BME280;19656;50.096;20.014;2023-04-01T10:28:06;97363.55;;;13.57;55.46
33286;BME280;19656;50.096;20.014;2023-04-01T11:20:21;97369.38;;;14.03;53.49
33286;BME280;19656;50.096;20.014;2023-04-01T11:55:51;97376.24;;;13.91;56.70
33286;BME280;19656;50.096;20.014;2023-04-01T12:04:22;97367.30;;;14.53;58.00
33286;BME280;19656;50.096;20.014;2023-04-01T12:20:30;97360.48;;;15.97;51.57
33286;BME280;19656;50.096;20.014;2023-04-01T12:57:21;97379.02;;;14.37;57.39
33286;BME280;19656;50.096;20.014;2023-04-01T13:03:12;97382.81;;;14.23;56.69
33286;BME280;19656;50.096;20.014;2023-04-01T13:08:48;97391.84;;;14.17;56.97
33286;BME280;19656;50.096;20.014;2023-04-01T13:14:56;97392.98;;;14.33;56.90
33286;BME280;19656;50.096;20.014;2023-04-01T13:20:24;97389.30;;;14.82;55.84
33286;BME280;19656;50.096;20.014;2023-04-01T13:37:44;97408.38;;;14.48;54.58
33286;BME280;19656;50.096;20.014;2023-04-01T13:43:15;97417.16;;;14.23;55.04
33286;BME280;19656;50.096;20.014;2023-04-01T13:48:53;97411.80;;;14.12;55.92
33286;BME280;19656;50.096;20.014;2023-04-01T14:28:25;97404.17;;;14.46;54.90
33286;BME280;19656;50.096;20.014;2023-04-01T14:33:26;97404.73;;;14.49;55.09
33286;BME280;19656;50.096;20.014;2023-04-01T14:49:05;97430.13;;;14.31;54.94
33286;BME280;19656;50.096;20.014;2023-04-01T14:54:30;97431.14;;;14.13;55.52
33286;BME280;19656;50.096;20.014;2023-04-01T14:59:39;97432.33;;;14.00;56.36
33286;BME280;19656;50.096;20.014;2023-04-01T15:04:54;97434.88;;;14.18;57.13
33286;BME280;19656;50.096;20.014;2023-04-01T15:16:20;97430.34;;;14.50;56.26
33286;BME280;19656;50.096;20.014;2023-04-01T15:26:37;97440.03;;;14.27;56.67
33286;BME280;19656;50.096;20.014;2023-04-01T15:32:00;97454.73;;;14.07;57.90
33286;BME280;19656;50.096;20.014;2023-04-01T15:48:35;97477.14;;;13.53;61.58
33286;BME280;19656;50.096;20.014;2023-04-01T15:54:06;97481.11;;;13.52;61.43
33286;BME280;19656;50.096;20.014;2023-04-01T16:04:47;97490.66;;;13.45;60.81
33286;BME280;19656;50.096;20.014;2023-04-01T16:21:37;97506.80;;;13.41;60.86
33286;BME280;19656;50.096;20.014;2023-04-01T16:27:33;97513.83;;;13.31;60.95
33286;BME280;19656;50.096;20.014;2023-04-01T16:32:54;97518.02;;;13.22;60.94
33286;BME280;19656;50.096;20.014;2023-04-01T16:38:26;97519.95;;;13.12;61.20
33286;BME280;19656;50.096;20.014;2023-04-01T16:43:52;97529.34;;;13.05;61.20
33286;BME280;19656;50.096;20.014;2023-04-01T16:49:23;97538.48;;;12.94;61.43
33286;BME280;19656;50.096;20.014;2023-04-01T16:54:43;97543.40;;;12.92;61.58
33286;BME280;19656;50.096;20.014;2023-04-01T17:05:36;97558.11;;;12.87;62.20
33286;BME280;19656;50.096;20.014;2023-04-01T17:30:39;97595.22;;;12.93;62.64
33286;BME280;19656;50.096;20.014;2023-04-01T17:42:40;97601.13;;;13.08;62.12
33286;BME280;19656;50.096;20.014;2023-04-01T17:54:04;97614.58;;;13.01;62.11
33286;BME280;19656;50.096;20.014;2023-04-01T18:06:07;97621.66;;;12.92;63.03
33286;BME280;19656;50.096;20.014;2023-04-01T18:29:39;97648.13;;;12.91;64.29
33286;BME280;19656;50.096;20.014;2023-04-01T18:34:54;97648.19;;;13.02;63.83
33286;BME280;19656;50.096;20.014;2023-04-01T18:40:20;97658.20;;;12.96;63.69
33286;BME280;19656;50.096;20.014;2023-04-01T18:58:26;97677.15;;;12.77;64.14
33286;BME280;19656;50.096;20.014;2023-04-01T19:03:55;97678.20;;;12.74;64.31
33286;BME280;19656;50.096;20.014;2023-04-01T19:15:31;97685.33;;;12.70;64.32
33286;BME280;19656;50.096;20.014;2023-04-01T19:26:46;97703.35;;;12.64;64.86
33286;BME280;19656;50.096;20.014;2023-04-01T19:51:06;97733.98;;;12.71;64.93
33286;BME280;19656;50.096;20.014;2023-04-01T19:56:20;97736.33;;;12.53;65.54
33286;BME280;19656;50.096;20.014;2023-04-01T20:07:38;97745.50;;;12.40;66.17
33286;BME280;19656;50.096;20.014;2023-04-01T20:18:58;97757.73;;;12.29;66.69
33286;BME280;19656;50.096;20.014;2023-04-01T20:24:36;97761.10;;;12.37;66.83
33286;BME280;19656;50.096;20.014;2023-04-01T21:50:43;97826.70;;;12.03;68.36
33286;BME280;19656;50.096;20.014;2023-04-01T21:56:43;97828.80;;;12.01;68.58
33286;BME280;19656;50.096;20.014;2023-04-01T22:17:27;97838.92;;;12.16;68.25
33286;BME280;19656;50.096;20.014;2023-04-01T22:28:05;97847.88;;;12.03;68.75
33286;BME280;19656;50.096;20.014;2023-04-01T22:33:30;97850.16;;;12.01;68.85
33286;BME280;19656;50.096;20.014;2023-04-01T22:39:06;97850.05;;;12.03;68.96
33286;BME280;19656;50.096;20.014;2023-04-01T22:44:35;97855.86;;;12.03;69.07
33286;BME280;19656;50.096;20.014;2023-04-01T22:50:13;97863.00;;;12.03;69.02
33286;BME280;19656;50.096;20.014;2023-04-01T22:55:23;97866.98;;;12.00;69.03
33286;BME280;19656;50.096;20.014;2023-04-01T23:00:49;97871.66;;;11.95;69.24
33286;BME280;19656;50.096;20.014;2023-04-01T23:06:03;97876.45;;;11.91;69.30
33286;BME280;19656;50.096;20.014;2023-04-01T23:11:12;97881.16;;;11.86;69.35
33286;BME280;19656;50.096;20.014;2023-04-01T23:16:30;97882.98;;;11.81;69.55
33286;BME280;19656;50.096;20.014;2023-04-01T23:21:41;97887.29;;;11.80;69.56
33286;BME280;19656;50.096;20.014;2023-04-01T23:26:55;97887.55;;;11.81;69.72
33286;BME280;19656;50.096;20.014;2023-04-01T23:32:03;97888.19;;;11.87;69.56
33286;BME280;19656;50.096;20.014;2023-04-01T23:37:13;97890.48;;;11.89;69.51
33286;BME280;19656;50.096;20.014;2023-04-01T23:42:30;97893.47;;;11.83;69.55
33286;BME280;19656;50.096;20.014;2023-04-01T23:47:38;97895.48;;;11.80;69.56
33286;BME280;19656;50.096;20.014;2023-04-01T23:52:44;97897.32;;;11.73;69.68
33286;BME280;19656;50.096;20.014;2023-04-01T23:58:24;97902.18;;;11.71;69.86
